createdAt,value
2022-12-23T00:00:10.768Z,0.9
2022-12-23T00:02:10.864Z,0.96
2022-12-23T00:04:10.929Z,0.94
2022-12-23T00:06:10.747Z,1.02
2022-12-23T00:08:10.816Z,1.03
2022-12-23T00:11:20.670Z,1.01
2022-12-23T00:13:20.711Z,1.02
2022-12-23T00:15:20.623Z,1.04
2022-12-23T00:17:22.851Z,0.96
2022-12-23T00:19:20.675Z,0.93
2022-12-23T00:21:20.665Z,0.93
2022-12-23T00:23:20.766Z,1.02
2022-12-23T00:26:06.137Z,0.97
2022-12-23T00:28:06.127Z,0.86
2022-12-23T00:30:06.152Z,0.89
2022-12-23T00:32:06.263Z,0.69
2022-12-23T00:34:06.140Z,0.88
2022-12-23T00:36:06.120Z,0.98
2022-12-23T00:38:06.139Z,0.66
2022-12-23T00:41:39.953Z,0.86
2022-12-23T00:43:39.986Z,0.76
2022-12-23T00:45:39.889Z,0.9
2022-12-23T00:47:39.955Z,0.91
2022-12-23T00:49:39.694Z,0.94
2022-12-23T00:51:39.911Z,0.87
2022-12-23T00:53:39.731Z,0.8
2022-12-23T00:56:54.763Z,0.77
2022-12-23T00:58:54.798Z,0.67
2022-12-23T01:00:54.800Z,0.63
2022-12-23T01:02:54.903Z,0.7
2022-12-23T01:04:54.763Z,0.72
2022-12-23T01:06:54.748Z,0.7
2022-12-23T01:08:54.807Z,0.71
2022-12-23T01:11:26.100Z,0.74
2022-12-23T01:13:26.106Z,0.53
2022-12-23T01:15:26.101Z,0.61
2022-12-23T01:17:26.118Z,0.57
2022-12-23T01:19:26.127Z,0.64
2022-12-23T01:21:26.104Z,0.64
2022-12-23T01:23:26.099Z,0.63
2022-12-23T01:27:16.895Z,0.69
2022-12-23T01:29:16.923Z,0.7
2022-12-23T01:31:16.963Z,0.71
2022-12-23T01:33:16.932Z,0.75
2022-12-23T01:35:16.923Z,0.71
2022-12-23T01:37:16.903Z,0.82
2022-12-23T01:39:17.094Z,0.73
2022-12-23T01:42:02.952Z,0.72
2022-12-23T01:44:02.967Z,0.7
2022-12-23T01:46:03.071Z,0.88
2022-12-23T01:48:03.100Z,0.72
2022-12-23T01:50:03.466Z,0.61
2022-12-23T01:52:02.908Z,0.65
2022-12-23T01:54:03.084Z,0.58
2022-12-23T01:57:06.004Z,0.41
2022-12-23T01:59:05.938Z,0.4
2022-12-23T02:01:05.997Z,0.57
2022-12-23T02:03:06.139Z,0.63
2022-12-23T02:05:05.945Z,0.62
2022-12-23T02:07:05.917Z,0.78
2022-12-23T02:09:05.909Z,-0.37
2022-12-23T02:12:41.184Z,0.04
2022-12-23T02:14:41.229Z,0.24
2022-12-23T02:16:41.214Z,0.27
2022-12-23T02:18:41.176Z,0.41
2022-12-23T02:20:41.244Z,0.48
2022-12-23T02:22:41.160Z,0.47
2022-12-23T02:24:41.172Z,0.24
2022-12-23T02:27:26.713Z,0.81
2022-12-23T02:29:26.699Z,0.84
2022-12-23T02:31:26.753Z,0.79
2022-12-23T02:33:26.742Z,0.8
2022-12-23T02:35:26.759Z,0.8
2022-12-23T02:37:26.720Z,0.94
2022-12-23T02:39:26.702Z,0.31
2022-12-23T02:43:04.225Z,0.63
2022-12-23T02:45:04.182Z,0.73
2022-12-23T02:47:04.227Z,0.68
2022-12-23T02:49:04.173Z,0.63
2022-12-23T02:51:04.176Z,0.75
2022-12-23T02:53:04.227Z,0.59
2022-12-23T02:55:04.201Z,0.55
2022-12-23T02:57:57.166Z,0.72
2022-12-23T02:59:57.169Z,0.9
2022-12-23T03:01:57.293Z,0.98
2022-12-23T03:03:57.239Z,1.19
2022-12-23T03:05:57.141Z,1.23
2022-12-23T03:07:57.194Z,1.33
2022-12-23T03:09:57.170Z,1.19
2022-12-23T03:12:58.469Z,1.03
2022-12-23T03:14:58.428Z,1.24
2022-12-23T03:16:58.431Z,1.29
2022-12-23T03:18:58.442Z,1.24
2022-12-23T03:20:58.445Z,1.23
2022-12-23T03:22:58.430Z,0.9
2022-12-23T03:24:58.439Z,1.1
2022-12-23T03:28:30.340Z,1.2
2022-12-23T03:30:30.229Z,1.32
2022-12-23T03:32:30.184Z,1.48
2022-12-23T03:34:30.200Z,1.41
2022-12-23T03:36:30.187Z,1.35
2022-12-23T03:38:30.221Z,1.14
2022-12-23T03:40:30.221Z,1.18
2022-12-23T03:43:07.213Z,1.23
2022-12-23T03:47:07.199Z,1.29
2022-12-23T03:49:07.217Z,1.31
2022-12-23T03:51:07.239Z,1.4
2022-12-23T03:53:07.457Z,1.13
2022-12-23T03:55:07.192Z,1.19
2022-12-23T03:58:23.698Z,1.32
2022-12-23T04:00:23.696Z,1.18
2022-12-23T04:02:23.822Z,0.79
2022-12-23T04:04:23.729Z,1
2022-12-23T04:06:23.774Z,1.17
2022-12-23T04:08:23.689Z,1.01
2022-12-23T04:10:23.768Z,1.26
2022-12-23T04:13:52.923Z,0.93
2022-12-23T04:15:52.906Z,0.96
2022-12-23T04:17:52.869Z,0.92
2022-12-23T04:19:52.812Z,0.93
2022-12-23T04:21:52.816Z,0.3
2022-12-23T04:23:52.793Z,0.15
2022-12-23T04:25:52.847Z,0.67
2022-12-23T04:29:09.254Z,1.12
2022-12-23T04:31:09.358Z,1.4
2022-12-23T04:33:09.300Z,1.6
2022-12-23T04:35:09.250Z,1.65
2022-12-23T04:37:09.244Z,1.72
2022-12-23T04:39:09.257Z,1.22
2022-12-23T04:41:09.301Z,0.87
2022-12-23T04:44:16.373Z,1.5
2022-12-23T04:46:16.671Z,1.64
2022-12-23T04:48:16.598Z,1.6
2022-12-23T04:50:16.315Z,1.22
2022-12-23T04:52:16.270Z,1.43
2022-12-23T04:54:16.265Z,1.55
2022-12-23T04:56:16.299Z,1.66
2022-12-23T04:59:02.471Z,1.67
2022-12-23T05:01:02.037Z,1.89
2022-12-23T05:03:01.943Z,1.96
2022-12-23T05:05:01.824Z,1.87
2022-12-23T05:07:01.803Z,1.95
2022-12-23T05:09:01.760Z,2.08
2022-12-23T05:11:01.793Z,1.85
2022-12-23T05:13:51.462Z,1.48
2022-12-23T05:15:51.713Z,1.6
2022-12-23T05:17:51.594Z,1.6
2022-12-23T05:19:51.584Z,1.75
2022-12-23T05:21:51.480Z,1.95
2022-12-23T05:23:51.429Z,1.78
2022-12-23T05:25:51.439Z,1.83
2022-12-23T05:27:51.504Z,1.86
2022-12-23T05:29:52.058Z,2.06
2022-12-23T05:31:52.135Z,2.17
2022-12-23T05:33:52.179Z,2.22
2022-12-23T05:35:52.064Z,2.19
2022-12-23T05:37:52.195Z,1.96
2022-12-23T05:39:52.100Z,2.08
2022-12-23T05:41:52.070Z,1.93
2022-12-23T05:44:52.795Z,1.96
2022-12-23T05:46:52.844Z,1.9
2022-12-23T05:48:52.750Z,2.04
2022-12-23T05:50:52.829Z,2.17
2022-12-23T05:52:52.805Z,2.28
2022-12-23T05:54:52.780Z,2.18
2022-12-23T05:56:52.758Z,2.08
2022-12-23T06:00:08.969Z,1.8
2022-12-23T06:02:09.141Z,1.81
2022-12-23T06:04:08.967Z,1.84
2022-12-23T06:06:08.911Z,1.82
2022-12-23T06:08:08.885Z,1.7
2022-12-23T06:10:08.845Z,1.86
2022-12-23T06:12:08.880Z,1.92
2022-12-23T06:14:36.144Z,1.9
2022-12-23T06:16:36.206Z,1.81
2022-12-23T06:18:36.124Z,1.99
2022-12-23T06:20:36.183Z,2.09
2022-12-23T06:22:36.129Z,2.15
2022-12-23T06:24:36.211Z,2.06
2022-12-23T06:26:36.208Z,1.93
2022-12-23T06:28:36.326Z,1.69
2022-12-23T06:30:09.827Z,1.66
2022-12-23T06:32:09.901Z,1.76
2022-12-23T06:34:09.910Z,1.86
2022-12-23T06:36:09.782Z,1.53
2022-12-23T06:38:12.132Z,1.73
2022-12-23T06:40:09.791Z,1.93
2022-12-23T06:42:09.804Z,2.22
2022-12-23T06:45:13.902Z,2.46
2022-12-23T06:47:14.067Z,2.44
2022-12-23T06:49:14.250Z,2.09
2022-12-23T06:51:13.889Z,1.91
2022-12-23T06:53:13.927Z,2.25
2022-12-23T06:55:13.942Z,1.92
2022-12-23T06:57:13.991Z,2.39
2022-12-23T07:00:39.274Z,2.42
2022-12-23T07:02:39.488Z,2.1
2022-12-23T07:04:39.274Z,2.01
2022-12-23T07:06:39.264Z,1.95
2022-12-23T07:08:39.267Z,1.94
2022-12-23T07:10:39.330Z,2.04
2022-12-23T07:12:39.280Z,2.13
2022-12-23T07:15:20.260Z,1.66
2022-12-23T07:17:20.308Z,1.94
2022-12-23T07:19:20.263Z,1.69
2022-12-23T07:21:28.484Z,2.09
2022-12-23T07:23:20.278Z,2.58
2022-12-23T07:25:20.255Z,2.72
2022-12-23T07:27:20.578Z,2.55
2022-12-23T07:31:12.926Z,2.76
2022-12-23T07:33:12.857Z,2.82
2022-12-23T07:35:12.892Z,2.88
2022-12-23T07:37:12.925Z,2.32
2022-12-23T07:39:12.887Z,2.31
2022-12-23T07:41:12.877Z,2.82
2022-12-23T07:43:12.954Z,2.92
2022-12-23T07:46:18.504Z,2.79
2022-12-23T07:48:18.460Z,2.52
2022-12-23T07:50:18.407Z,2.48
2022-12-23T07:52:18.459Z,2.7
2022-12-23T07:54:18.632Z,2.83
2022-12-23T07:56:18.497Z,3.08
2022-12-23T07:58:18.464Z,3.48
2022-12-23T08:00:41.116Z,3.97
2022-12-23T08:02:41.015Z,4.06
2022-12-23T08:04:45.748Z,3.64
2022-12-23T08:06:41.337Z,3
2022-12-23T08:08:41.194Z,3.05
2022-12-23T08:10:47.856Z,3.19
2022-12-23T08:12:40.913Z,3
2022-12-23T08:14:40.895Z,3.18
2022-12-23T08:16:44.082Z,3.39
2022-12-23T08:18:42.237Z,3.32
2022-12-23T08:20:42.249Z,3.49
2022-12-23T08:22:42.347Z,3.5
2022-12-23T08:24:42.178Z,3.82
2022-12-23T08:26:42.498Z,4.02
2022-12-23T08:28:42.278Z,4.18
2022-12-23T08:30:54.529Z,4.4
2022-12-23T08:32:54.446Z,4.39
2022-12-23T08:34:54.601Z,4.28
2022-12-23T08:36:54.396Z,3.98
2022-12-23T08:38:54.415Z,3.72
2022-12-23T08:40:54.500Z,3.65
2022-12-23T08:42:54.428Z,3.54
2022-12-23T08:44:54.418Z,3.52
2022-12-23T08:46:30.322Z,3.52
2022-12-23T08:48:30.280Z,3.69
2022-12-23T08:50:30.215Z,3.94
2022-12-23T08:52:30.196Z,3.37
2022-12-23T08:54:30.225Z,3.62
2022-12-23T08:56:30.288Z,3.82
2022-12-23T08:58:30.168Z,3.46
2022-12-23T09:01:41.792Z,3.75
2022-12-23T09:03:41.698Z,3.85
2022-12-23T09:05:41.669Z,4.24
2022-12-23T09:07:41.548Z,4.56
2022-12-23T09:09:41.616Z,4.38
2022-12-23T09:11:41.740Z,4.76
2022-12-23T09:13:41.528Z,4.35
2022-12-23T09:16:34.341Z,4.71
2022-12-23T09:18:34.324Z,4.46
2022-12-23T09:20:34.273Z,4.89
2022-12-23T09:22:34.111Z,5.12
2022-12-23T09:24:34.120Z,4.91
2022-12-23T09:26:34.110Z,4.92
2022-12-23T09:28:34.257Z,5.09
2022-12-23T09:31:57.299Z,5.41
2022-12-23T09:33:57.238Z,5.76
2022-12-23T09:35:57.161Z,5.64
2022-12-23T09:37:57.189Z,5.69
2022-12-23T09:39:57.173Z,5.81
2022-12-23T09:41:57.382Z,5.98
2022-12-23T09:43:57.158Z,5.83
2022-12-23T09:46:58.205Z,5.9
2022-12-23T09:48:58.120Z,5.64
2022-12-23T09:50:58.120Z,5.71
2022-12-23T09:52:58.138Z,6.13
2022-12-23T09:54:58.248Z,6.51
2022-12-23T09:56:58.117Z,6.44
2022-12-23T09:58:58.204Z,6.43
2022-12-23T10:01:53.195Z,6.13
2022-12-23T10:03:53.119Z,6.32
2022-12-23T10:05:52.849Z,6.43
2022-12-23T10:07:52.866Z,6.48
2022-12-23T10:09:52.872Z,6.55
2022-12-23T10:11:52.825Z,6.39
2022-12-23T10:13:52.833Z,6.46
2022-12-23T10:15:52.992Z,6.34
2022-12-23T10:17:22.714Z,6.37
2022-12-23T10:19:22.674Z,5.9
2022-12-23T10:21:22.561Z,6.5
2022-12-23T10:23:22.597Z,6.71
2022-12-23T10:25:22.815Z,6.33
2022-12-23T10:27:22.501Z,6.22
2022-12-23T10:29:22.730Z,6.5
2022-12-23T10:32:10.927Z,6.45
2022-12-23T10:34:10.938Z,6.26
2022-12-23T10:36:11.114Z,6.45
2022-12-23T10:38:10.949Z,7.06
2022-12-23T10:40:11.068Z,7.12
2022-12-23T10:42:10.927Z,6.99
2022-12-23T10:44:10.879Z,6.8
2022-12-23T10:46:10.989Z,7.02
2022-12-23T10:47:23.376Z,7.3
2022-12-23T10:49:23.433Z,7.39
2022-12-23T10:51:23.270Z,7.29
2022-12-23T10:53:23.279Z,7.69
2022-12-23T10:55:26.183Z,7.9
2022-12-23T10:57:23.209Z,7.98
2022-12-23T10:59:23.315Z,8.18
2022-12-23T11:01:26.964Z,8.42
2022-12-23T11:02:34.452Z,8.15
2022-12-23T11:04:34.310Z,7.29
2022-12-23T11:06:37.338Z,7.18
2022-12-23T11:08:34.425Z,7.33
2022-12-23T11:10:34.049Z,7.31
2022-12-23T11:12:37.327Z,7.42
2022-12-23T11:14:34.018Z,7.61
2022-12-23T11:16:34.145Z,7.37
2022-12-23T11:17:48.457Z,7.29
2022-12-23T11:19:48.591Z,7.33
2022-12-23T11:21:48.506Z,7.41
2022-12-23T11:23:48.766Z,7.4
2022-12-23T11:25:48.493Z,7.14
2022-12-23T11:27:48.871Z,7.11
2022-12-23T11:29:48.478Z,7.4
2022-12-23T11:32:52.002Z,7.39
2022-12-23T11:34:51.988Z,7.6
2022-12-23T11:36:54.784Z,7.9
2022-12-23T11:38:51.995Z,7.89
2022-12-23T11:40:52.211Z,8
2022-12-23T11:42:55.216Z,8.21
2022-12-23T11:44:52.047Z,8.4
2022-12-23T11:46:52.014Z,8.13
2022-12-23T11:48:08.288Z,8.07
2022-12-23T11:50:08.293Z,7.96
2022-12-23T11:52:08.269Z,8.04
2022-12-23T11:54:08.316Z,8
2022-12-23T11:56:08.280Z,7.74
2022-12-23T11:58:08.273Z,7.7
2022-12-23T12:00:08.306Z,7.99
2022-12-23T12:03:39.820Z,8.52
2022-12-23T12:05:39.753Z,8.51
2022-12-23T12:07:39.750Z,8.13
2022-12-23T12:09:39.787Z,8.32
2022-12-23T12:11:39.759Z,8.39
2022-12-23T12:13:39.778Z,8.42
2022-12-23T12:15:39.746Z,8.76
2022-12-23T12:18:50.582Z,8.9
2022-12-23T12:20:46.374Z,8.75
2022-12-23T12:22:46.371Z,8.8
2022-12-23T12:24:46.435Z,8.77
2022-12-23T12:26:46.404Z,8.82
2022-12-23T12:28:46.363Z,8.76
2022-12-23T12:30:46.435Z,8.7
2022-12-23T12:33:57.085Z,8.8
2022-12-23T12:36:01.798Z,9.11
2022-12-23T12:37:57.097Z,9.1
2022-12-23T12:39:57.091Z,8.98
2022-12-23T12:42:01.695Z,8.94
2022-12-23T12:43:57.124Z,9.03
2022-12-23T12:45:57.235Z,9.25
2022-12-23T12:49:32.530Z,9.4
2022-12-23T12:51:32.581Z,9.31
2022-12-23T12:53:32.611Z,8.81
2022-12-23T12:55:32.530Z,8.5
2022-12-23T12:57:32.716Z,8.4
2022-12-23T12:59:32.578Z,8.44
2022-12-23T13:01:32.662Z,8.78
2022-12-23T13:03:47.306Z,9.09
2022-12-23T13:05:53.497Z,9.19
2022-12-23T13:07:47.369Z,9.18
2022-12-23T13:09:47.301Z,9.11
2022-12-23T13:11:47.267Z,9.17
2022-12-23T13:13:47.276Z,9.18
2022-12-23T13:15:47.256Z,9.17
2022-12-23T13:17:47.385Z,9.2
2022-12-23T13:19:41.110Z,9.19
2022-12-23T13:21:41.092Z,9.14
2022-12-23T13:23:43.909Z,9.16
2022-12-23T13:25:41.086Z,9.16
2022-12-23T13:27:41.047Z,9.21
2022-12-23T13:29:41.301Z,9.12
2022-12-23T13:31:41.050Z,9.14
2022-12-23T13:34:27.402Z,9.06
2022-12-23T13:36:27.402Z,8.98
2022-12-23T13:38:27.451Z,8.92
2022-12-23T13:40:27.527Z,8.91
2022-12-23T13:42:27.374Z,8.87
2022-12-23T13:44:27.435Z,8.77
2022-12-23T13:46:27.492Z,8.54
2022-12-23T13:49:49.513Z,8.51
2022-12-23T13:51:49.502Z,8.5
2022-12-23T13:53:49.525Z,8.47
2022-12-23T13:55:49.497Z,8.38
2022-12-23T13:57:49.548Z,8.3
2022-12-23T13:59:49.483Z,8.24
2022-12-23T14:01:49.605Z,8.13
2022-12-23T14:04:54.073Z,7.99
2022-12-23T14:06:54.113Z,7.96
2022-12-23T14:08:54.038Z,7.94
2022-12-23T14:10:54.030Z,7.89
2022-12-23T14:12:54.026Z,7.78
2022-12-23T14:14:54.046Z,7.76
2022-12-23T14:16:54.091Z,7.73
2022-12-23T14:19:36.124Z,7.69
2022-12-23T14:21:36.099Z,7.5
2022-12-23T14:23:36.109Z,7.58
2022-12-23T14:25:36.103Z,7.49
2022-12-23T14:27:36.114Z,7.42
2022-12-23T14:29:36.155Z,7.35
2022-12-23T14:31:36.294Z,7.27
2022-12-23T14:33:36.107Z,7.2
2022-12-23T14:35:43.225Z,7.21
2022-12-23T14:37:43.063Z,7.11
2022-12-23T14:39:43.069Z,6.99
2022-12-23T14:41:43.061Z,6.94
2022-12-23T14:43:43.097Z,6.87
2022-12-23T14:45:43.135Z,6.83
2022-12-23T14:47:43.037Z,6.83
2022-12-23T14:50:11.191Z,6.78
2022-12-23T14:52:11.215Z,6.67
2022-12-23T14:54:11.171Z,6.61
2022-12-23T14:56:11.160Z,6.5
2022-12-23T14:58:11.482Z,6.5
2022-12-23T15:00:11.179Z,6.38
2022-12-23T15:02:11.440Z,6.34
2022-12-23T15:05:11.021Z,6.09
2022-12-23T15:07:11.354Z,6.11
2022-12-23T15:09:11.026Z,6.12
2022-12-23T15:11:11.014Z,6.13
2022-12-23T15:13:11.215Z,5.98
2022-12-23T15:15:11.124Z,5.85
2022-12-23T15:17:11.277Z,5.77
2022-12-23T15:19:11.261Z,5.8
2022-12-23T15:20:58.040Z,5.74
2022-12-23T15:22:58.055Z,5.75
2022-12-23T15:24:58.055Z,5.69
2022-12-23T15:27:25.005Z,5.76
2022-12-23T15:28:58.044Z,5.8
2022-12-23T15:30:58.104Z,5.78
2022-12-23T15:32:58.042Z,5.71
2022-12-23T15:36:05.604Z,5.85
2022-12-23T15:38:05.568Z,5.94
2022-12-23T15:40:12.475Z,6.03
2022-12-23T15:42:05.590Z,5.91
2022-12-23T15:44:05.541Z,6.06
2022-12-23T15:46:05.586Z,6.13
2022-12-23T15:48:05.557Z,6.22
2022-12-23T15:50:37.999Z,6.11
2022-12-23T15:52:38.020Z,6.04
2022-12-23T15:54:38.040Z,6.02
2022-12-23T15:56:38.026Z,6.15
2022-12-23T15:58:38.014Z,6.14
2022-12-23T16:00:38.038Z,6.26
2022-12-23T16:04:38.036Z,6.34
2022-12-23T16:06:13.136Z,6.3
2022-12-23T16:08:13.134Z,6.13
2022-12-23T16:10:13.184Z,6.1
2022-12-23T16:12:13.128Z,6.13
2022-12-23T16:14:13.122Z,6.22
2022-12-23T16:16:13.215Z,6.23
2022-12-23T16:18:13.132Z,6.09
2022-12-23T16:21:44.329Z,6.14
2022-12-23T16:23:44.345Z,6.11
2022-12-23T16:25:48.521Z,6.06
2022-12-23T16:27:44.330Z,5.98
2022-12-23T16:29:44.400Z,5.93
2022-12-23T16:31:51.210Z,5.98
2022-12-23T16:33:44.348Z,5.99
2022-12-23T16:36:13.970Z,5.82
2022-12-23T16:38:13.902Z,5.72
2022-12-23T16:40:13.887Z,5.52
2022-12-23T16:42:13.903Z,5.51
2022-12-23T16:44:13.872Z,5.48
2022-12-23T16:46:13.953Z,5.46
2022-12-23T16:48:13.978Z,5.46
2022-12-23T16:52:05.381Z,5.34
2022-12-23T16:54:05.308Z,5.18
2022-12-23T16:56:05.305Z,5.21
2022-12-23T16:58:05.393Z,5.27
2022-12-23T17:00:05.372Z,5.24
2022-12-23T17:02:05.339Z,5.17
2022-12-23T17:04:05.600Z,5.1
2022-12-23T17:06:29.051Z,5.02
2022-12-23T17:08:29.066Z,5.09
2022-12-23T17:10:29.044Z,4.96
2022-12-23T17:12:29.072Z,4.89
2022-12-23T17:14:29.221Z,4.89
2022-12-23T17:16:29.162Z,4.88
2022-12-23T17:18:29.084Z,4.93
2022-12-23T17:20:29.024Z,4.94
2022-12-23T17:22:15.685Z,4.99
2022-12-23T17:24:15.628Z,4.85
2022-12-23T17:26:15.685Z,4.82
2022-12-23T17:28:15.683Z,4.59
2022-12-23T17:30:15.673Z,4.72
2022-12-23T17:32:16.342Z,4.6
2022-12-23T17:34:15.658Z,4.47
2022-12-23T17:37:04.737Z,4.52
2022-12-23T17:39:04.710Z,4.54
2022-12-23T17:41:04.695Z,4.4
2022-12-23T17:43:04.693Z,4.29
2022-12-23T17:45:04.704Z,4.21
2022-12-23T17:47:04.686Z,4.29
2022-12-23T17:49:04.670Z,4.27
2022-12-23T17:52:36.371Z,4.33
2022-12-23T17:54:36.347Z,4.37
2022-12-23T17:56:36.383Z,4.31
2022-12-23T17:58:36.352Z,4.18
2022-12-23T18:00:36.385Z,4.07
2022-12-23T18:02:36.471Z,4.1
2022-12-23T18:04:36.411Z,4.17
2022-12-23T18:07:57.120Z,4.27
2022-12-23T18:09:57.201Z,4.23
2022-12-23T18:11:57.133Z,4.11
2022-12-23T18:13:57.125Z,3.88
2022-12-23T18:15:57.112Z,4.19
2022-12-23T18:17:57.118Z,4.09
2022-12-23T18:19:57.129Z,4.09
2022-12-23T18:22:29.557Z,4.08
2022-12-23T18:24:29.612Z,4.12
2022-12-23T18:26:29.574Z,4.12
2022-12-23T18:28:29.574Z,4.08
2022-12-23T18:30:29.660Z,3.99
2022-12-23T18:32:29.581Z,3.88
2022-12-23T18:34:29.642Z,3.94
2022-12-23T18:37:55.695Z,3.93
2022-12-23T18:39:55.717Z,3.91
2022-12-23T18:41:55.852Z,3.83
2022-12-23T18:43:55.848Z,3.97
2022-12-23T18:45:55.755Z,3.89
2022-12-23T18:47:55.697Z,3.73
2022-12-23T18:49:55.715Z,3.69
2022-12-23T18:53:03.231Z,3.66
2022-12-23T18:55:03.871Z,3.64
2022-12-23T18:57:03.226Z,3.74
2022-12-23T18:59:03.241Z,3.66
2022-12-23T19:01:03.241Z,3.56
2022-12-23T19:03:03.316Z,3.51
2022-12-23T19:05:03.202Z,3.51
2022-12-23T19:07:39.046Z,3.57
2022-12-23T19:09:39.300Z,3.62
2022-12-23T19:11:39.001Z,3.57
2022-12-23T19:13:39.075Z,3.49
2022-12-23T19:15:39.047Z,3.44
2022-12-23T19:17:39.010Z,3.47
2022-12-23T19:19:38.987Z,3.51
2022-12-23T19:21:39.023Z,3.44
2022-12-23T19:23:38.407Z,3.45
2022-12-23T19:25:38.438Z,3.4
2022-12-23T19:27:38.436Z,3.46
2022-12-23T19:29:38.466Z,3.38
2022-12-23T19:31:38.411Z,3.18
2022-12-23T19:33:38.399Z,3.21
2022-12-23T19:35:38.446Z,3.31
2022-12-23T19:38:51.766Z,3.35
2022-12-23T19:40:51.728Z,3.28
2022-12-23T19:42:51.800Z,3.32
2022-12-23T19:44:51.749Z,3.29
2022-12-23T19:46:51.889Z,3.26
2022-12-23T19:48:51.754Z,3.24
2022-12-23T19:50:51.728Z,3.21
2022-12-23T19:53:31.757Z,3.17
2022-12-23T19:55:31.738Z,3.21
2022-12-23T19:57:31.760Z,3.15
2022-12-23T19:59:31.709Z,3.03
2022-12-23T20:01:31.777Z,3.09
2022-12-23T20:03:31.821Z,3.03
2022-12-23T20:05:31.712Z,2.97
2022-12-23T20:08:19.210Z,3.06
2022-12-23T20:10:19.166Z,2.98
2022-12-23T20:12:19.218Z,3.05
2022-12-23T20:14:19.176Z,3.08
2022-12-23T20:16:19.204Z,3.1
2022-12-23T20:18:19.179Z,3.07
2022-12-23T20:20:19.150Z,2.98
2022-12-23T20:22:19.139Z,3.01
2022-12-23T20:23:46.222Z,2.83
2022-12-23T20:25:46.238Z,2.86
2022-12-23T20:27:46.297Z,3.01
2022-12-23T20:29:46.293Z,3.01
2022-12-23T20:31:46.312Z,3.04
2022-12-23T20:33:46.367Z,2.98
2022-12-23T20:35:46.337Z,2.96
2022-12-23T20:39:15.484Z,2.88
2022-12-23T20:41:15.427Z,2.87
2022-12-23T20:43:15.857Z,2.79
2022-12-23T20:45:15.414Z,2.73
2022-12-23T20:47:15.411Z,2.79
2022-12-23T20:49:15.411Z,2.83
2022-12-23T20:51:15.528Z,2.87
2022-12-23T20:54:04.744Z,2.72
2022-12-23T20:56:04.738Z,2.62
2022-12-23T20:58:04.778Z,2.58
2022-12-23T21:00:04.783Z,2.59
2022-12-23T21:02:04.803Z,2.66
2022-12-23T21:04:04.726Z,2.74
2022-12-23T21:06:04.850Z,2.72
2022-12-23T21:09:21.887Z,2.68
2022-12-23T21:11:21.667Z,2.54
2022-12-23T21:13:21.570Z,2.57
2022-12-23T21:15:21.637Z,2.58
2022-12-23T21:17:21.572Z,2.54
2022-12-23T21:19:21.839Z,2.55
2022-12-23T21:21:21.584Z,2.53
2022-12-23T21:24:57.270Z,2.48
2022-12-23T21:26:57.450Z,2.45
2022-12-23T21:28:57.212Z,2.5
2022-12-23T21:30:57.390Z,2.53
2022-12-23T21:32:57.214Z,2.41
2022-12-23T21:34:57.232Z,2.23
2022-12-23T21:36:57.301Z,2.39
2022-12-23T21:39:41.222Z,2.44
2022-12-23T21:41:41.197Z,2.39
2022-12-23T21:43:41.228Z,2.35
2022-12-23T21:45:41.232Z,2.37
2022-12-23T21:47:41.164Z,2.35
2022-12-23T21:49:41.219Z,2.3
2022-12-23T21:51:42.025Z,2.28
2022-12-23T21:54:44.653Z,2.29
2022-12-23T21:56:44.472Z,2.29
2022-12-23T21:58:44.528Z,2.28
2022-12-23T22:00:44.460Z,2.22
2022-12-23T22:02:44.556Z,2.12
2022-12-23T22:04:44.758Z,1.99
2022-12-23T22:06:44.896Z,2.04
2022-12-23T22:10:12.211Z,2.03
2022-12-23T22:12:12.367Z,2.08
2022-12-23T22:14:12.322Z,2
2022-12-23T22:16:12.310Z,1.92
2022-12-23T22:18:12.211Z,1.95
2022-12-23T22:20:12.300Z,1.95
2022-12-23T22:22:12.211Z,2.02
2022-12-23T22:25:30.306Z,1.97
2022-12-23T22:27:30.595Z,1.9
2022-12-23T22:29:30.196Z,1.85
2022-12-23T22:31:30.350Z,1.87
2022-12-23T22:33:30.216Z,1.84
2022-12-23T22:35:30.303Z,1.82
2022-12-23T22:37:30.273Z,1.87
2022-12-23T22:40:47.062Z,1.68
2022-12-23T22:42:47.006Z,1.72
2022-12-23T22:44:47.022Z,1.8
2022-12-23T22:46:47.078Z,1.91
2022-12-23T22:48:47.059Z,1.8
2022-12-23T22:50:47.185Z,1.8
2022-12-23T22:52:47.003Z,1.63
2022-12-23T22:55:47.219Z,1.68
2022-12-23T22:57:47.036Z,1.73
2022-12-23T22:59:46.764Z,1.72
2022-12-23T23:01:46.783Z,1.59
2022-12-23T23:03:46.761Z,1.66
2022-12-23T23:05:46.884Z,1.57
2022-12-23T23:07:46.697Z,1.57
2022-12-23T23:11:09.616Z,1.51
2022-12-23T23:13:09.554Z,1.59
2022-12-23T23:15:09.610Z,1.69
2022-12-23T23:17:09.599Z,1.65
2022-12-23T23:19:09.585Z,1.6
2022-12-23T23:21:09.614Z,1.52
2022-12-23T23:23:09.546Z,1.56
2022-12-23T23:25:54.620Z,1.43
2022-12-23T23:27:54.618Z,1.4
2022-12-23T23:29:54.936Z,1.37
2022-12-23T23:31:54.616Z,1.48
2022-12-23T23:33:54.924Z,1.47
2022-12-23T23:35:54.595Z,1.46
2022-12-23T23:37:54.783Z,1.51
2022-12-23T23:40:58.564Z,1.5
2022-12-23T23:42:58.569Z,1.5
2022-12-23T23:44:58.566Z,1.46
2022-12-23T23:46:58.600Z,1.41
2022-12-23T23:48:58.579Z,1.42
2022-12-23T23:50:58.541Z,1.44
2022-12-23T23:52:58.587Z,1.3
2022-12-23T23:56:06.611Z,1.43
2022-12-23T23:58:06.620Z,1.34
